Time;durP1;ratioP1;P1;durP2;ratioP2;P2;SDS_P1;SDS_P2;PMS_P1;PMS_P2;Temp;Humidity;BMP_temperature;BMP_pressure;BME280_temperature;BME280_humidity;BME280_pressure;Samples;Min_cycle;Max_cycle;Signal;HPM_P1;HPM_P2
2021/07/24 00:04:51;;;;;;;20.10;14.70;;;;;;;17.32;98.21;98649.28;10419468;28;20533;-74
2021/07/24 00:10:10;;;;;;;23.10;15.13;;;;;;;17.30;98.50;98635.03;10419436;28;20176;-72
2021/07/24 00:15:29;;;;;;;18.80;14.60;;;;;;;17.27;96.84;98619.25;10417467;28;20243;-73
2021/07/24 00:20:49;;;;;;;18.67;14.33;;;;;;;17.25;98.09;98615.38;10418817;28;20184;-73
2021/07/24 00:26:12;;;;;;;21.40;15.53;;;;;;;17.21;96.02;98618.28;10425363;28;20236;-75
2021/07/24 00:31:32;;;;;;;20.93;14.00;;;;;;;17.20;95.92;98610.41;10457785;28;20219;-75
2021/07/24 00:36:51;;;;;;;21.00;15.07;;;;;;;17.20;95.70;98608.41;10458757;28;20720;-76
2021/07/24 00:42:18;;;;;;;22.63;15.50;;;;;;;17.25;99.34;98601.47;10459246;28;20176;-76
2021/07/24 00:47:40;;;;;;;32.60;14.37;;;;;;;17.07;99.20;98576.38;10457662;28;20183;-73
2021/07/24 00:53:10;;;;;;;26.23;14.80;;;;;;;16.94;100.00;98576.44;10458232;28;20278;-75
2021/07/24 00:58:35;;;;;;;25.13;15.00;;;;;;;16.90;100.00;98573.00;10415021;28;20286;-76
2021/07/24 01:03:54;;;;;;;24.33;14.60;;;;;;;16.83;100.00;98569.72;10417033;28;20180;-76
2021/07/24 01:09:13;;;;;;;20.23;13.93;;;;;;;16.80;100.00;98565.81;10416999;28;20176;-76
2021/07/24 01:14:32;;;;;;;18.80;15.00;;;;;;;16.73;100.00;98558.97;10415260;28;20215;-74
2021/07/24 01:19:51;;;;;;;21.63;15.97;;;;;;;16.79;100.00;98558.75;10401469;28;20639;-75
2021/07/24 01:25:10;;;;;;;20.40;15.77;;;;;;;16.73;100.00;98558.97;10416347;28;20175;-77
2021/07/24 01:30:29;;;;;;;22.70;16.00;;;;;;;16.75;100.00;98556.53;10414325;28;20216;-73
2021/07/24 01:35:50;;;;;;;22.10;15.83;;;;;;;16.63;100.00;98562.94;10415625;28;20665;-75
2021/07/24 01:41:12;;;;;;;20.30;16.53;;;;;;;16.55;100.00;98558.88;10415852;28;20180;-74
2021/07/24 01:46:31;;;;;;;20.60;15.90;;;;;;;16.55;100.00;98558.88;10399459;28;20184;-75
2021/07/24 01:57:37;;;;;;;21.33;16.60;;;;;;;16.43;100.00;98581.91;10432963;28;20203;-75
2021/07/24 02:03:00;;;;;;;23.43;16.90;;;;;;;16.31;100.00;98579.97;10456321;28;20193;-74
2021/07/24 02:08:25;;;;;;;20.03;15.87;;;;;;;16.30;100.00;98583.94;10454602;28;20809;-75
2021/07/24 02:13:47;;;;;;;22.10;17.20;;;;;;;16.48;100.00;98586.88;10454833;28;20194;-76
2021/07/24 02:19:06;;;;;;;22.20;15.80;;;;;;;16.26;100.00;98588.81;10439101;28;20167;-74
2021/07/24 02:24:26;;;;;;;22.13;16.03;;;;;;;16.01;100.00;98597.97;10440371;28;20238;-74
2021/07/24 02:29:45;;;;;;;22.53;15.73;;;;;;;15.92;100.00;98594.31;10454199;28;20218;-74
2021/07/24 02:35:05;;;;;;;26.40;18.80;;;;;;;16.09;100.00;98592.94;10455452;28;20211;-73
2021/07/24 02:40:24;;;;;;;19.67;15.67;;;;;;;16.11;100.00;98605.16;10455649;28;20175;-75
2021/07/24 02:45:43;;;;;;;20.73;16.77;;;;;;;15.92;100.00;98599.84;10454169;28;20175;-73
2021/07/24 02:51:02;;;;;;;24.87;18.03;;;;;;;15.68;100.00;98604.22;10418782;28;20203;-75
2021/07/24 02:56:21;;;;;;;25.03;17.07;;;;;;;15.63;100.00;98596.47;10413701;28;20204;-74
2021/07/24 03:01:40;;;;;;;22.23;16.60;;;;;;;15.65;100.00;98601.56;10397841;28;20222;-74
2021/07/24 03:06:59;;;;;;;20.67;15.87;;;;;;;15.64;100.00;98595.25;10413855;28;20168;-74
2021/07/24 03:12:18;;;;;;;20.37;15.60;;;;;;;15.66;100.00;98601.13;10413817;28;20172;-74
2021/07/24 03:17:37;;;;;;;32.93;18.10;;;;;;;15.67;100.00;98599.88;10420832;28;20392;-74
2021/07/24 03:22:59;;;;;;;24.73;18.83;;;;;;;15.74;100.00;98594.13;10447189;28;20537;-76
2021/07/24 03:28:18;;;;;;;31.03;18.90;;;;;;;15.80;100.00;98599.88;10445517;28;20223;-76
2021/07/24 03:33:37;;;;;;;29.87;18.10;;;;;;;15.82;100.00;98603.78;10446446;28;20374;-76
2021/07/24 03:38:56;;;;;;;27.77;18.77;;;;;;;15.88;100.00;98590.09;10461435;28;20669;-74
2021/07/24 03:44:15;;;;;;;27.60;19.50;;;;;;;15.92;100.00;98585.22;10460291;28;20186;-75
2021/07/24 03:49:34;;;;;;;25.67;19.20;;;;;;;15.95;100.00;98587.88;10419549;28;20586;-74
2021/07/24 03:54:53;;;;;;;28.80;19.47;;;;;;;15.95;100.00;98576.78;10419446;28;20212;-76
2021/07/24 04:00:12;;;;;;;26.37;18.87;;;;;;;15.95;100.00;98556.59;10418465;28;20180;-76
2021/07/24 04:05:38;;;;;;;25.27;18.87;;;;;;;15.96;100.00;98561.69;10419399;28;20547;-76
2021/07/24 04:10:58;;;;;;;29.17;19.77;;;;;;;16.01;100.00;98550.03;10404246;28;20180;-75
2021/07/24 04:16:18;;;;;;;26.00;19.63;;;;;;;16.05;100.00;98553.47;10417453;28;20587;-75
2021/07/24 04:21:36;;;;;;;29.63;20.07;;;;;;;16.15;100.00;98569.75;10418738;28;20608;-75
2021/07/24 04:26:55;;;;;;;34.67;21.50;;;;;;;16.26;100.00;98570.16;10418831;28;20627;-74
2021/07/24 04:32:14;;;;;;;28.50;20.10;;;;;;;16.37;100.00;98567.03;10415688;28;20223;-74
2021/07/24 04:37:33;;;;;;;29.37;21.57;;;;;;;16.49;100.00;98550.34;10417756;28;20574;-75
2021/07/24 04:42:52;;;;;;;28.00;19.23;;;;;;;16.61;100.00;98562.63;10416279;28;20176;-74
2021/07/24 04:48:11;;;;;;;24.07;19.07;;;;;;;16.70;100.00;98557.13;10410878;28;20284;-75
2021/07/24 04:53:32;;;;;;;28.43;18.63;;;;;;;16.77;100.00;98569.53;10402275;28;20200;-74
2021/07/24 04:58:52;;;;;;;28.87;19.13;;;;;;;16.89;100.00;98568.66;10416093;28;20176;-76
2021/07/24 05:04:12;;;;;;;26.63;19.30;;;;;;;17.11;100.00;98569.44;10417254;28;20168;-75
2021/07/24 05:09:31;;;;;;;28.40;19.83;;;;;;;17.43;100.00;98568.22;10416919;28;20172;-75
2021/07/24 05:14:50;;;;;;;24.40;18.30;;;;;;;17.83;100.00;98569.78;10415346;28;20646;-74
2021/07/24 05:20:09;;;;;;;22.93;17.97;;;;;;;18.23;99.52;98570.50;10433950;28;20295;-74
2021/07/24 05:25:28;;;;;;;24.70;18.57;;;;;;;18.60;99.06;98578.44;10457405;28;20659;-75
2021/07/24 05:30:47;;;;;;;25.43;18.40;;;;;;;18.94;96.27;98595.59;10440380;28;20219;-75
2021/07/24 05:36:06;;;;;;;28.10;19.77;;;;;;;19.37;93.81;98617.53;10441785;28;20211;-75
2021/07/24 05:41:25;;;;;;;24.97;19.30;;;;;;;19.60;89.74;98630.81;10456832;28;20179;-74
2021/07/24 05:46:47;;;;;;;25.20;18.57;;;;;;;19.72;89.96;98615.88;10450955;28;20176;-75
2021/07/24 05:52:08;;;;;;;20.77;17.00;;;;;;;19.91;88.90;98608.97;10415458;28;20199;-75
2021/07/24 05:57:27;;;;;;;24.50;17.67;;;;;;;20.10;86.22;98608.44;10414857;28;20200;-74
2021/07/24 06:02:46;;;;;;;27.47;17.77;;;;;;;20.31;86.46;98593.41;10414348;28;20180;-75
2021/07/24 06:08:05;;;;;;;22.57;18.63;;;;;;;20.65;85.70;98588.03;10414975;28;20666;-74
2021/07/24 06:13:24;;;;;;;23.73;18.07;;;;;;;21.01;83.77;98584.94;10413843;28;20183;-75
2021/07/24 06:18:43;;;;;;;23.13;16.97;;;;;;;21.15;80.63;98584.94;10435117;28;20195;-75
2021/07/24 06:24:02;;;;;;;22.00;18.67;;;;;;;21.43;81.15;98599.41;10415990;28;20192;-76
2021/07/24 06:29:21;;;;;;;27.47;18.63;;;;;;;21.62;78.68;98609.97;10413936;28;20235;-75
2021/07/24 06:34:40;;;;;;;22.43;18.33;;;;;;;21.60;78.44;98604.09;10414376;28;20208;-74
2021/07/24 06:39:59;;;;;;;26.13;18.20;;;;;;;21.71;77.82;98599.44;10399307;28;20168;-74
2021/07/24 06:45:18;;;;;;;21.70;17.73;;;;;;;21.85;78.74;98604.25;10413101;28;20176;-74
2021/07/24 06:50:37;;;;;;;27.23;20.20;;;;;;;21.93;78.88;98593.38;10414151;28;20200;-75
2021/07/24 06:55:57;;;;;;;24.00;18.30;;;;;;;22.48;78.37;98583.75;10412174;28;20223;-75
2021/07/24 07:01:16;;;;;;;25.80;18.67;;;;;;;22.76;75.48;98576.47;10462031;28;20211;-74
2021/07/24 07:06:35;;;;;;;21.57;18.50;;;;;;;23.34;70.79;98555.13;10447845;28;20175;-73
2021/07/24 07:11:58;;;;;;;27.43;18.30;;;;;;;23.80;68.57;98564.22;10462865;28;20626;-74
2021/07/24 07:17:17;;;;;;;21.87;16.97;;;;;;;24.37;66.20;98570.44;10460883;28;20207;-73
2021/07/24 07:22:36;;;;;;;20.07;16.43;;;;;;;25.02;63.86;98575.56;10447419;28;20168;-73
2021/07/24 07:27:54;;;;;;;19.40;16.90;;;;;;;25.14;62.09;98568.72;10436991;28;20180;-75
2021/07/24 07:33:15;;;;;;;19.10;16.70;;;;;;;25.52;59.28;98584.88;10405994;28;20538;-74
2021/07/24 07:38:34;;;;;;;22.57;15.20;;;;;;;25.79;58.79;98584.16;10420593;28;20196;-74
2021/07/24 07:43:53;;;;;;;25.53;15.30;;;;;;;25.38;58.51;98581.03;10419068;28;20168;-75
2021/07/24 07:49:12;;;;;;;19.37;16.37;;;;;;;25.64;57.89;98586.44;10419971;28;20246;-76
2021/07/24 07:54:32;;;;;;;23.07;16.67;;;;;;;25.48;58.29;98579.50;10420601;28;20665;-75
2021/07/24 07:59:52;;;;;;;18.80;16.10;;;;;;;25.77;60.34;98578.25;10418499;28;20188;-75
2021/07/24 08:05:12;;;;;;;19.23;15.70;;;;;;;26.26;56.70;98578.16;10403113;28;20180;-76
2021/07/24 08:10:31;;;;;;;20.90;15.80;;;;;;;25.98;56.01;98569.00;10455770;28;20187;-77
2021/07/24 08:15:50;;;;;;;16.37;14.60;;;;;;;25.80;56.24;98575.19;10458546;28;20214;-76
2021/07/24 08:21:09;;;;;;;16.00;14.50;;;;;;;25.89;55.90;98563.66;10444992;28;20179;-76
2021/07/24 08:26:28;;;;;;;18.00;14.50;;;;;;;25.94;57.84;98569.28;10459739;28;20179;-77
2021/07/24 08:31:47;;;;;;;16.30;14.60;;;;;;;26.07;56.00;98577.97;10442738;28;20211;-78
2021/07/24 08:37:06;;;;;;;16.03;14.33;;;;;;;26.09;55.37;98586.69;10434757;28;20611;-77
2021/07/24 08:42:37;;;;;;;15.23;13.73;;;;;;;25.66;55.97;98581.81;10402879;28;20184;-75
2021/07/24 08:47:57;;;;;;;16.20;14.20;;;;;;;25.47;54.89;98577.97;10417868;28;20172;-76
2021/07/24 08:53:23;;;;;;;21.47;13.67;;;;;;;25.85;54.71;98574.41;10402526;28;20176;-75
2021/07/24 08:58:44;;;;;;;17.77;13.90;;;;;;;26.31;53.22;98574.59;10416184;28;20638;-76
2021/07/24 09:04:05;;;;;;;17.20;13.90;;;;;;;26.63;51.09;98568.06;10417237;28;20589;-76
2021/07/24 09:09:26;;;;;;;16.70;13.37;;;;;;;27.64;47.44;98548.75;10432456;28;20604;-76
2021/07/24 09:14:45;;;;;;;16.70;14.03;;;;;;;27.97;46.57;98526.59;10430046;28;20211;-75
2021/07/24 09:20:05;;;;;;;17.10;13.13;;;;;;;28.75;46.96;98522.34;10411759;28;20172;-76
2021/07/24 09:25:24;;;;;;;15.20;13.63;;;;;;;29.65;43.27;98530.53;10434769;28;20188;-76
2021/07/24 09:30:43;;;;;;;14.63;13.27;;;;;;;30.05;42.63;98532.91;10399275;28;20722;-76
2021/07/24 09:36:02;;;;;;;14.33;12.93;;;;;;;30.24;41.71;98525.06;10415671;28;20208;-76
2021/07/24 09:41:21;;;;;;;20.83;14.47;;;;;;;30.32;42.11;98516.69;10415648;28;20203;-77
2021/07/24 09:46:53;;;;;;;18.00;14.77;;;;;;;29.90;43.22;98511.25;10400305;28;20533;-77
2021/07/24 09:52:14;;;;;;;15.77;14.10;;;;;;;28.90;46.64;98517.00;10415375;28;20624;-76
2021/07/24 09:57:33;;;;;;;14.87;13.27;;;;;;;27.95;48.13;98522.75;10414682;28;20203;-75
2021/07/24 10:03:03;;;;;;;17.07;13.77;;;;;;;27.74;49.89;98524.50;10415065;28;20207;-77
2021/07/24 10:08:24;;;;;;;21.07;14.20;;;;;;;28.12;49.55;98520.50;10416028;28;20545;-76
2021/07/24 10:13:44;;;;;;;26.07;14.37;;;;;;;28.04;50.61;98519.56;10409287;28;20184;-76
2021/07/24 10:19:04;;;;;;;20.10;14.70;;;;;;;27.76;51.15;98527.56;10448796;28;20630;-78
2021/07/24 10:24:24;;;;;;;20.83;13.27;;;;;;;27.69;53.28;98522.50;10440748;28;20195;-76
2021/07/24 10:29:57;;;;;;;19.20;13.80;;;;;;;27.41;52.69;98524.75;10445912;28;20218;-75
2021/07/24 10:35:35;;;;;;;14.77;13.23;;;;;;;26.48;56.04;98530.19;10432869;28;20645;-76
2021/07/24 10:40:55;;;;;;;15.10;13.53;;;;;;;26.24;56.54;98527.19;10424083;28;20577;-76
2021/07/24 10:46:14;;;;;;;15.63;12.50;;;;;;;26.13;58.53;98508.22;10421335;28;20172;-75
2021/07/24 10:51:56;;;;;;;16.50;12.60;;;;;;;26.86;57.17;98446.06;10423281;28;20666;-77
2021/07/24 10:57:47;;;;;;;12.80;11.50;;;;;;;27.17;55.26;98439.94;10423798;28;20681;-76
2021/07/24 11:03:28;;;;;;;19.67;12.10;;;;;;;27.20;54.68;98458.69;10426926;28;20670;-77
2021/07/24 11:09:10;;;;;;;44.80;14.10;;;;;;;27.07;56.99;98452.09;10422599;28;20176;-77
2021/07/24 11:14:29;;;;;;;14.70;11.50;;;;;;;27.43;55.02;98443.81;10422302;28;20578;-75
2021/07/24 11:19:51;;;;;;;16.90;12.73;;;;;;;28.54;51.55;98444.88;10406294;28;20172;-75
2021/07/24 11:25:10;;;;;;;14.00;11.10;;;;;;;29.53;47.82;98443.38;10420892;28;20169;-77
2021/07/24 11:30:29;;;;;;;22.07;11.47;;;;;;;31.95;45.78;98414.59;10419360;28;20678;-76
2021/07/24 11:35:51;;;;;;;11.57;10.43;;;;;;;33.57;39.31;98414.94;10421326;28;20223;-77
2021/07/24 11:41:12;;;;;;;13.10;9.37;;;;;;;33.30;37.63;98417.44;10406262;28;20674;-77
2021/07/24 11:46:31;;;;;;;8.97;7.70;;;;;;;31.89;36.82;98414.78;10405687;28;20208;-76
2021/07/24 11:51:50;;;;;;;11.00;9.73;;;;;;;32.28;37.01;98420.13;10420110;28;20650;-77
2021/07/24 11:57:09;;;;;;;15.90;11.13;;;;;;;31.56;40.52;98425.53;10419456;28;20212;-75
2021/07/24 12:02:28;;;;;;;14.80;11.43;;;;;;;31.34;39.71;98420.41;10403420;28;20172;-78
2021/07/24 12:07:47;;;;;;;14.97;12.30;;;;;;;31.00;40.76;98428.19;10403863;28;20630;-76
2021/07/24 12:13:07;;;;;;;17.47;13.97;;;;;;;30.22;41.49;98421.94;10417820;28;20184;-76
2021/07/24 12:18:28;;;;;;;16.17;14.27;;;;;;;30.18;42.04;98413.75;10432180;28;20198;-76
2021/07/24 12:24:00;;;;;;;21.43;13.23;;;;;;;30.74;41.30;98419.75;10460232;28;20548;-77
2021/07/24 12:29:20;;;;;;;14.27;12.70;;;;;;;31.56;39.81;98414.16;10458267;28;20219;-76
2021/07/24 12:34:42;;;;;;;23.27;14.03;;;;;;;31.77;38.71;98410.69;10459458;28;20202;-76
2021/07/24 12:40:20;;;;;;;13.97;12.70;;;;;;;31.30;39.18;98397.22;10452483;28;20184;-77
2021/07/24 12:45:39;;;;;;;13.27;12.00;;;;;;;31.32;38.64;98391.75;10414743;28;20192;-76
2021/07/24 12:51:08;;;;;;;16.30;12.33;;;;;;;31.04;38.81;98377.47;10416813;28;20200;-77
2021/07/24 12:56:27;;;;;;;13.83;12.00;;;;;;;31.68;38.99;98382.75;10417309;28;20219;-76
2021/07/24 13:01:48;;;;;;;13.77;12.37;;;;;;;32.20;37.35;98388.03;10416183;28;20180;-75
2021/07/24 13:07:07;;;;;;;17.33;12.13;;;;;;;32.94;36.44;98378.97;10417244;28;20533;-76
2021/07/24 13:12:28;;;;;;;16.90;11.87;;;;;;;34.19;34.14;98376.66;10417538;28;20541;-76
2021/07/24 13:17:46;;;;;;;22.47;12.80;;;;;;;34.53;34.31;98373.25;10440197;28;20211;-78
2021/07/24 13:23:07;;;;;;;14.87;12.20;;;;;;;35.13;35.30;98365.88;10401580;28;20175;-76
2021/07/24 13:28:27;;;;;;;13.77;11.33;;;;;;;34.80;34.67;98371.44;10417118;28;20309;-77
2021/07/24 13:33:46;;;;;;;20.30;12.60;;;;;;;34.36;32.36;98368.22;10416135;28;20180;-77
2021/07/24 13:39:06;;;;;;;13.57;11.40;;;;;;;33.73;34.63;98357.34;10405827;28;20194;-76
2021/07/24 13:44:25;;;;;;;12.73;11.53;;;;;;;32.66;36.02;98366.94;10427455;28;20266;-75
2021/07/24 13:49:43;;;;;;;12.30;11.30;;;;;;;32.25;36.27;98358.63;10440124;28;20203;-75
2021/07/24 13:55:07;;;;;;;12.27;10.97;;;;;;;31.21;39.29;98367.22;10441334;28;20579;-75
2021/07/24 14:00:26;;;;;;;14.83;12.53;;;;;;;30.62;40.19;98361.69;10440061;28;20176;-75
2021/07/24 14:05:45;;;;;;;14.30;12.80;;;;;;;30.45;42.41;98366.94;10440655;28;20567;-75
2021/07/24 14:11:23;;;;;;;15.33;12.50;;;;;;;30.50;41.84;98371.78;10442041;28;20210;-73
2021/07/24 14:16:42;;;;;;;13.90;12.37;;;;;;;30.32;43.59;98366.25;10439041;28;20203;-74
2021/07/24 14:22:01;;;;;;;19.63;12.53;;;;;;;30.53;42.39;98364.22;10433276;28;20179;-74
2021/07/24 14:27:21;;;;;;;13.90;12.50;;;;;;;30.55;42.35;98379.41;10440721;28;20187;-74
2021/07/24 14:32:40;;;;;;;13.93;12.30;;;;;;;30.32;42.13;98369.84;10426728;28;20224;-74
2021/07/24 14:37:59;;;;;;;13.17;11.77;;;;;;;31.43;40.83;98331.72;10430574;28;20669;-74
2021/07/24 14:43:18;;;;;;;12.83;11.17;;;;;;;31.76;40.09;98323.81;10421397;28;20192;-74
2021/07/24 14:48:37;;;;;;;14.10;11.83;;;;;;;31.63;39.42;98318.25;10414147;28;20204;-76
2021/07/24 14:53:56;;;;;;;13.47;12.07;;;;;;;31.04;39.81;98320.63;10414082;28;20176;-75
2021/07/24 14:59:15;;;;;;;18.73;13.20;;;;;;;30.31;43.10;98311.53;10417896;28;20183;-76
2021/07/24 15:04:33;;;;;;;17.80;13.43;;;;;;;30.74;42.24;98317.50;10455025;28;20179;-75
2021/07/24 15:09:53;;;;;;;13.70;12.17;;;;;;;30.95;42.28;98312.56;10453324;28;20550;-74
2021/07/24 15:15:12;;;;;;;12.93;11.60;;;;;;;31.59;39.85;98310.63;10456770;28;20211;-76
2021/07/24 15:20:31;;;;;;;16.23;12.80;;;;;;;31.11;39.84;98302.88;10462543;28;20171;-76
2021/07/24 15:25:50;;;;;;;16.67;13.10;;;;;;;30.85;40.64;98300.19;10462321;28;20539;-75
2021/07/24 15:31:09;;;;;;;15.57;12.57;;;;;;;30.83;40.94;98280.09;10458553;28;20219;-77
2021/07/24 15:36:28;;;;;;;13.63;12.03;;;;;;;30.44;41.51;98271.78;10461697;28;20294;-77
2021/07/24 15:41:47;;;;;;;13.17;11.87;;;;;;;30.02;43.24;98277.91;10461818;28;20642;-77
2021/07/24 15:47:07;;;;;;;17.80;13.40;;;;;;;29.44;47.24;98282.22;10460300;28;20199;-77
2021/07/24 15:52:26;;;;;;;30.53;14.87;;;;;;;28.05;57.19;98297.66;10459580;28;20187;-82
2021/07/24 15:57:45;;;;;;;25.17;14.87;;;;;;;26.38;66.32;98286.34;10445688;28;20235;-78
2021/07/24 16:03:04;;;;;;;16.23;13.87;;;;;;;26.38;70.39;98286.34;10445673;28;20535;-78
2021/07/24 16:08:23;;;;;;;16.13;13.50;;;;;;;27.77;68.95;98281.09;10445731;28;20172;-80
2021/07/24 16:13:42;;;;;;;14.17;12.70;;;;;;;28.15;63.29;98287.50;10450859;28;20187;-80
2021/07/24 16:19:02;;;;;;;16.23;13.23;;;;;;;27.13;65.74;98301.09;10451089;28;20637;-83
2021/07/24 16:24:21;;;;;;;13.87;12.40;;;;;;;26.42;62.93;98298.13;10444296;28;20215;-79
2021/07/24 16:29:40;;;;;;;17.70;13.43;;;;;;;25.58;68.62;98281.41;10457804;28;20219;-82
2021/07/24 16:34:59;;;;;;;16.67;13.30;;;;;;;25.40;71.29;98276.38;10459362;28;20219;-79
2021/07/24 16:40:18;;;;;;;18.63;14.03;;;;;;;25.11;73.21;98277.75;10459111;28;20254;-82
2021/07/24 16:45:38;;;;;;;20.07;14.20;;;;;;;25.01;76.92;98273.66;10457696;28;20585;-79
2021/07/24 16:51:04;;;;;;;27.33;15.10;;;;;;;25.18;77.28;98282.84;10458571;28;20171;-80
2021/07/24 16:56:24;;;;;;;24.93;14.50;;;;;;;25.34;77.26;98253.88;10458110;28;20219;-82
2021/07/24 17:01:43;;;;;;;21.57;15.20;;;;;;;25.35;78.39;98249.00;10457255;28;20218;-78
2021/07/24 17:07:03;;;;;;;18.50;15.83;;;;;;;25.20;78.85;98271.81;10458278;28;20182;-81
2021/07/24 17:12:22;;;;;;;26.30;16.50;;;;;;;25.04;84.76;98297.94;10458209;28;20175;-79
2021/07/24 17:17:41;;;;;;;25.80;18.80;;;;;;;24.61;96.68;98298.75;10455889;28;20207;-77
2021/07/24 17:23:00;;;;;;;23.50;18.57;;;;;;;24.29;93.50;98307.94;10457637;28;20183;-79
2021/07/24 17:28:19;;;;;;;20.47;17.90;;;;;;;23.92;95.76;98306.56;10455829;28;20588;-77
2021/07/24 17:33:39;;;;;;;25.00;17.87;;;;;;;23.82;99.76;98302.47;10457211;28;20206;-78
2021/07/24 17:38:58;;;;;;;22.90;18.10;;;;;;;23.98;100.00;98298.91;10455959;28;20595;-79
2021/07/24 17:44:17;;;;;;;22.40;18.60;;;;;;;23.76;100.00;98304.50;10440635;28;20180;-79
2021/07/24 17:49:36;;;;;;;26.77;19.70;;;;;;;23.39;100.00;98309.41;10456694;28;20199;-80
2021/07/24 17:54:55;;;;;;;22.63;17.90;;;;;;;23.06;100.00;98330.91;10456460;28;20302;-78
2021/07/24 18:00:14;;;;;;;19.13;16.83;;;;;;;23.06;100.00;98314.84;10455360;28;20179;-81
2021/07/24 18:05:37;;;;;;;19.23;14.70;;;;;;;23.23;91.68;98295.28;10456504;28;20183;-79
2021/07/24 18:10:57;;;;;;;20.13;17.57;;;;;;;23.40;100.00;98302.50;10456352;28;20179;-78
2021/07/24 18:16:16;;;;;;;24.93;16.53;;;;;;;23.19;100.00;98305.97;10454574;28;20199;-79
2021/07/24 18:21:36;;;;;;;21.93;15.80;;;;;;;23.01;100.00;98309.19;10449542;28;20183;-78
2021/07/24 18:26:59;;;;;;;22.03;16.03;;;;;;;23.02;100.00;98302.31;10455780;28;20171;-79
2021/07/24 18:32:17;;;;;;;18.13;14.90;;;;;;;23.09;96.31;98293.44;10453578;28;20226;-78
2021/07/24 18:37:37;;;;;;;16.93;15.13;;;;;;;23.12;99.95;98312.06;10398927;28;20216;-78
2021/07/24 18:42:56;;;;;;;21.27;15.37;;;;;;;23.09;100.00;98304.66;10413309;28;20176;-79
2021/07/24 18:48:15;;;;;;;18.83;15.33;;;;;;;23.02;100.00;98294.66;10414911;28;20195;-81
2021/07/24 18:53:34;;;;;;;24.57;16.37;;;;;;;23.01;100.00;98292.34;10446700;28;20187;-80
2021/07/24 18:58:53;;;;;;;26.63;16.13;;;;;;;22.88;100.00;98286.38;10461584;28;20210;-79
2021/07/24 19:04:12;;;;;;;22.60;16.23;;;;;;;22.65;100.00;98281.91;10463229;28;20201;-82
2021/07/24 19:09:31;;;;;;;17.13;14.87;;;;;;;22.53;100.00;98285.91;10463198;28;20303;-81
2021/07/24 19:14:50;;;;;;;22.23;15.53;;;;;;;22.21;100.00;98283.53;10444583;28;20247;-80
2021/07/24 19:20:09;;;;;;;16.13;13.80;;;;;;;22.09;100.00;98302.28;10462719;28;20176;-82
2021/07/24 19:25:29;;;;;;;19.77;14.20;;;;;;;22.08;100.00;98314.75;10462411;28;20669;-81
2021/07/24 19:30:51;;;;;;;20.83;14.00;;;;;;;21.83;100.00;98306.34;10457194;28;20216;-79
2021/07/24 19:36:09;;;;;;;18.60;15.37;;;;;;;21.89;100.00;98307.91;10460056;28;20639;-80
2021/07/24 19:41:28;;;;;;;15.90;12.90;;;;;;;21.68;100.00;98317.63;10461269;28;20191;-80
2021/07/24 19:46:48;;;;;;;19.70;13.27;;;;;;;21.52;100.00;98323.00;10419066;28;20711;-81
2021/07/24 19:52:06;;;;;;;20.40;12.57;;;;;;;21.56;100.00;98340.38;10420048;28;20627;-82
2021/07/24 19:57:25;;;;;;;13.60;11.13;;;;;;;21.32;100.00;98334.19;10419544;28;20211;-82
2021/07/24 20:02:44;;;;;;;15.73;11.50;;;;;;;21.18;100.00;98337.81;10418397;28;20188;-81
2021/07/24 20:08:03;;;;;;;16.07;11.20;;;;;;;21.24;100.00;98355.44;10419673;28;20172;-81
2021/07/24 20:13:23;;;;;;;15.20;11.13;;;;;;;21.39;100.00;98361.00;10433095;28;20183;-80
2021/07/24 20:18:42;;;;;;;16.03;13.10;;;;;;;21.33;100.00;98376.91;10444821;28;20207;-78
2021/07/24 20:24:01;;;;;;;17.67;13.17;;;;;;;21.24;100.00;98380.63;10460280;28;20183;-80
2021/07/24 20:29:20;;;;;;;16.20;10.80;;;;;;;21.21;100.00;98364.03;10458535;28;20643;-79
2021/07/24 20:34:38;;;;;;;17.73;12.60;;;;;;;21.12;100.00;98358.56;10459842;28;20234;-79
2021/07/24 20:39:59;;;;;;;17.17;12.00;;;;;;;21.05;100.00;98429.66;10444466;28;20179;-78
2021/07/24 20:45:18;;;;;;;13.80;10.73;;;;;;;21.25;100.00;98438.13;10427416;28;20208;-81
2021/07/24 20:50:37;;;;;;;17.73;10.80;;;;;;;21.42;100.00;98435.56;10417876;28;20621;-80
2021/07/24 20:56:04;;;;;;;18.27;11.03;;;;;;;21.23;100.00;98456.66;10417624;28;20203;-80
2021/07/24 21:01:23;;;;;;;14.80;11.93;;;;;;;21.12;100.00;98468.41;10387325;28;20583;-78
2021/07/24 21:06:42;;;;;;;22.87;12.27;;;;;;;21.14;100.00;98496.69;10417407;28;20172;-81
2021/07/24 21:12:04;;;;;;;15.23;11.73;;;;;;;20.73;100.00;98516.53;10419421;28;20179;-83
2021/07/24 21:17:23;;;;;;;17.60;13.77;;;;;;;20.14;100.00;98475.75;10441317;28;20257;-84
2021/07/24 21:22:42;;;;;;;20.73;14.63;;;;;;;20.00;100.00;98444.97;10457763;28;20163;-80
2021/07/24 21:28:01;;;;;;;22.70;14.77;;;;;;;19.94;100.00;98423.75;10441043;28;20168;-78
2021/07/24 21:33:20;;;;;;;16.53;14.27;;;;;;;20.02;100.00;98422.19;10455939;28;20180;-80
2021/07/24 21:38:39;;;;;;;17.77;13.70;;;;;;;19.99;100.00;98417.53;10455041;28;20215;-84
2021/07/24 21:43:58;;;;;;;18.57;14.17;;;;;;;20.04;100.00;98406.47;10432361;28;20235;-79
2021/07/24 21:49:16;;;;;;;26.10;15.33;;;;;;;20.06;100.00;98392.81;10414038;28;20176;-80
2021/07/24 21:54:35;;;;;;;20.93;16.20;;;;;;;20.12;100.00;98418.81;10414052;28;20195;-82
2021/07/24 21:59:54;;;;;;;25.80;14.93;;;;;;;20.27;100.00;98425.19;10412720;28;20204;-84
2021/07/24 22:05:13;;;;;;;16.37;14.17;;;;;;;20.32;100.00;98432.91;10398857;28;20175;-78
2021/07/24 22:10:34;;;;;;;23.03;14.87;;;;;;;20.24;100.00;98452.06;10413735;28;20180;-83
2021/07/24 22:15:53;;;;;;;22.90;13.20;;;;;;;20.07;100.00;98453.75;10448988;28;20211;-82
2021/07/24 22:21:13;;;;;;;15.67;11.77;;;;;;;19.88;100.00;98453.56;10454546;28;20183;-81
2021/07/24 22:26:35;;;;;;;13.63;11.20;;;;;;;19.73;100.00;98433.19;10452997;28;20172;-80
2021/07/24 22:31:55;;;;;;;9.70;8.03;;;;;;;19.65;100.00;98420.84;10414328;28;1136064;-81
2021/07/24 22:37:14;;;;;;;9.77;7.90;;;;;;;19.42;100.00;98432.78;10455207;28;20593;-81
2021/07/24 22:42:33;;;;;;;7.70;7.00;;;;;;;19.19;100.00;98424.38;10453987;28;20573;-81
2021/07/24 22:47:51;;;;;;;10.20;7.43;;;;;;;19.10;100.00;98439.13;10454515;28;20179;-82
2021/07/24 22:53:10;;;;;;;8.37;6.67;;;;;;;18.94;100.00;98433.91;10455426;28;20171;-80
2021/07/24 22:58:29;;;;;;;7.13;6.50;;;;;;;18.84;100.00;98426.81;10453644;28;20207;-78
2021/07/24 23:03:48;;;;;;;8.60;7.40;;;;;;;18.75;100.00;98428.88;10440146;28;20187;-77
2021/07/24 23:09:07;;;;;;;9.37;7.10;;;;;;;18.68;100.00;98424.38;10440060;28;20171;-78
2021/07/24 23:14:27;;;;;;;14.30;8.33;;;;;;;18.54;100.00;98424.25;10412443;28;20207;-81
2021/07/24 23:19:46;;;;;;;12.10;8.90;;;;;;;18.45;100.00;98421.53;10413650;28;20176;-82
2021/07/24 23:25:06;;;;;;;10.40;7.33;;;;;;;18.37;100.00;98411.94;10398630;28;20717;-78
2021/07/24 23:30:24;;;;;;;8.37;6.87;;;;;;;18.25;100.00;98403.78;10411973;28;20300;-84
2021/07/24 23:35:43;;;;;;;7.53;5.90;;;;;;;18.14;100.00;98404.19;10416067;28;20251;-83
2021/07/24 23:41:03;;;;;;;8.97;7.03;;;;;;;18.07;100.00;98384.25;10433062;28;20183;-82
2021/07/24 23:46:22;;;;;;;10.67;7.20;;;;;;;18.06;100.00;98388.28;10460473;28;20195;-81
2021/07/24 23:51:41;;;;;;;11.13;6.80;;;;;;;17.95;100.00;98383.19;10461777;28;20171;-80
2021/07/24 23:57:00;;;;;;;8.00;7.13;;;;;;;17.94;100.00;98376.09;10461087;28;20215;-81
